Thunder radar more information blitzortung!


Radar de pluja more information rain snow radar


Visita la nostra xarxa de llocs de meteo:

Template documentation
and downloads

And another site



No particular awareness of the weather is required.    There are no Weather-warnings

Pagina Historial Weather Underground text

Diari Resum Octubre 24, 2017 Unitats:  Tant    Imperial   Mètric
« Previous Dia
SegĂźent Dia »
Diari Setmana Mensual Anual Personalitzada
  Maxima: Minima: Media:
Temperatura: 76.5 °F /  24.7 °C 49.3 °F /  9.6 °C 63.5 °F /  17.5 °C
Punt de rosada: 52.9 °F /  11.6 °C 41.4 °F /  5.2 °C 47.1 °F /  8.4 °C
Humitat: 75 % 42 % 57 %
Wind Speed: 6.9 mph /  11.1 km/h - 2 mph /  3.2 km/h
RĂ fegues de vent: 6.9 mph /  11.1 km/h - -
Vent:- - SSW
Pression baro: 30.3 in /  1026.0 hPa 30.2 in /  1021.9 hPa -
Precipitacions: 0 in /  0.0 mm    
Historical Graphs
 
 
Dades de taula per Octubre 24, 2017
Temps Temperatura Punt de rosada Pression baro Vent Wind Speed RĂ fegues de vent Humitat Rainfall Rate (Hourly)
00:04 55.4 °F /  13.0 °C 42.6 °F /  5.9 °C 30.2 in /  1023.9 hPa WSW 1.2 mph /  1.9 km/h 1.2 mph /  1.9 km/h 62 % 0 in /  0.0 mm
00:05 50.7 °F /  10.4 °C 42.4 °F /  5.8 °C 30.2 in /  1023.9 hPa WSW 1 mph /  1.6 km/h 2 mph /  3.2 km/h 73 % 0 in /  0.0 mm
00:09 55.2 °F /  12.9 °C 42.8 °F /  6.0 °C 30.2 in /  1023.9 hPa Calm     63 % 0 in /  0.0 mm
00:15 50.7 °F /  10.4 °C 42.6 °F /  5.9 °C 30.2 in /  1023.9 hPa Calm   2 mph /  3.2 km/h 74 % 0 in /  0.0 mm
00:25 50.7 °F /  10.4 °C 42.6 °F /  5.9 °C 30.2 in /  1023.9 hPa Calm     74 % 0 in /  0.0 mm
00:35 50.7 °F /  10.4 °C 42.6 °F /  5.9 °C 30.2 in /  1023.9 hPa Calm   2 mph /  3.2 km/h 74 % 0 in /  0.0 mm
00:45 50.7 °F /  10.4 °C 42.6 °F /  5.9 °C 30.2 in /  1023.9 hPa Calm   1 mph /  1.6 km/h 74 % 0 in /  0.0 mm
00:55 50.7 °F /  10.4 °C 42.6 °F /  5.9 °C 30.2 in /  1023.9 hPa WNW 1 mph /  1.6 km/h 1 mph /  1.6 km/h 74 % 0 in /  0.0 mm
01:05 49.6 °F /  9.8 °C 41.7 °F /  5.4 °C 30.2 in /  1022.9 hPa WSW 2 mph /  3.2 km/h 2 mph /  3.2 km/h 74 % 0 in /  0.0 mm
01:15 49.6 °F /  9.8 °C 41.7 °F /  5.4 °C 30.2 in /  1023.9 hPa SW 1 mph /  1.6 km/h 2 mph /  3.2 km/h 74 % 0 in /  0.0 mm
01:25 49.8 °F /  9.9 °C 42.3 °F /  5.7 °C 30.2 in /  1023.9 hPa SW 1 mph /  1.6 km/h 1 mph /  1.6 km/h 75 % 0 in /  0.0 mm
01:35 50.2 °F /  10.1 °C 42.3 °F /  5.7 °C 30.2 in /  1023.9 hPa WSW 1 mph /  1.6 km/h 3 mph /  4.8 km/h 74 % 0 in /  0.0 mm
01:55 50.4 °F /  10.2 °C 42.4 °F /  5.8 °C 30.2 in /  1023.9 hPa West 1 mph /  1.6 km/h 2 mph /  3.2 km/h 74 % 0 in /  0.0 mm
02:05 49.3 °F /  9.6 °C 41.4 °F /  5.2 °C 30.2 in /  1023.9 hPa WSW 2 mph /  3.2 km/h 3 mph /  4.8 km/h 74 % 0 in /  0.0 mm
02:15 49.6 °F /  9.8 °C 42.1 °F /  5.6 °C 30.2 in /  1023.9 hPa WSW 1 mph /  1.6 km/h 2 mph /  3.2 km/h 75 % 0 in /  0.0 mm
02:25 50.2 °F /  10.1 °C 42.6 °F /  5.9 °C 30.2 in /  1023.9 hPa Calm   2 mph /  3.2 km/h 75 % 0 in /  0.0 mm
02:35 50.7 °F /  10.4 °C 43.2 °F /  6.2 °C 30.2 in /  1023.9 hPa West 1 mph /  1.6 km/h 2 mph /  3.2 km/h 75 % 0 in /  0.0 mm
02:45 50.7 °F /  10.4 °C 43.2 °F /  6.2 °C 30.2 in /  1023.9 hPa West 1 mph /  1.6 km/h 1 mph /  1.6 km/h 75 % 0 in /  0.0 mm
02:55 50.2 °F /  10.1 °C 42.6 °F /  5.9 °C 30.2 in /  1023.9 hPa Calm   1 mph /  1.6 km/h 75 % 0 in /  0.0 mm
03:05 50.2 °F /  10.1 °C 42.6 °F /  5.9 °C 30.2 in /  1023.9 hPa Calm     75 % 0 in /  0.0 mm
03:15 50.5 °F /  10.3 °C 43 °F /  6.1 °C 30.2 in /  1023.9 hPa Calm   2 mph /  3.2 km/h 75 % 0 in /  0.0 mm
03:25 50.9 °F /  10.5 °C 43.3 °F /  6.3 °C 30.2 in /  1023.9 hPa Calm   2 mph /  3.2 km/h 75 % 0 in /  0.0 mm
03:35 50.5 °F /  10.3 °C 43 °F /  6.1 °C 30.2 in /  1023.9 hPa WNW 1 mph /  1.6 km/h 1 mph /  1.6 km/h 75 % 0 in /  0.0 mm
03:45 50.9 °F /  10.5 °C 43.3 °F /  6.3 °C 30.2 in /  1023.9 hPa Calm   2 mph /  3.2 km/h 75 % 0 in /  0.0 mm
03:55 51.6 °F /  10.9 °C 44.1 °F /  6.7 °C 30.2 in /  1023.9 hPa West 1 mph /  1.6 km/h 2 mph /  3.2 km/h 75 % 0 in /  0.0 mm
04:05 52.3 °F /  11.3 °C 44.6 °F /  7.0 °C 30.3 in /  1024.9 hPa West 1 mph /  1.6 km/h 2 mph /  3.2 km/h 75 % 0 in /  0.0 mm
04:15 53.4 °F /  11.9 °C 45.3 °F /  7.4 °C 30.3 in /  1024.9 hPa WNW 1 mph /  1.6 km/h 2 mph /  3.2 km/h 74 % 0 in /  0.0 mm
04:25 54.1 °F /  12.3 °C 46 °F /  7.8 °C 30.3 in /  1024.9 hPa Calm   1 mph /  1.6 km/h 74 % 0 in /  0.0 mm
04:35 55 °F /  12.8 °C 46.6 °F /  8.1 °C 30.3 in /  1024.9 hPa Calm   3 mph /  4.8 km/h 73 % 0 in /  0.0 mm
04:45 55.6 °F /  13.1 °C 46.8 °F /  8.2 °C 30.3 in /  1026.0 hPa Calm   2 mph /  3.2 km/h 72 % 0 in /  0.0 mm
04:55 56.3 °F /  13.5 °C 46.9 °F /  8.3 °C 30.3 in /  1026.0 hPa Calm   2 mph /  3.2 km/h 71 % 0 in /  0.0 mm
05:05 57.2 °F /  14.0 °C 47.1 °F /  8.4 °C 30.3 in /  1026.0 hPa Calm   2 mph /  3.2 km/h 69 % 0 in /  0.0 mm
05:15 58.1 °F /  14.5 °C 48 °F /  8.9 °C 30.3 in /  1026.0 hPa Calm   2 mph /  3.2 km/h 69 % 0 in /  0.0 mm
10:16 58.3 °F /  14.6 °C 47.8 °F /  8.8 °C 30.3 in /  1026.0 hPa NNW 3.5 mph /  5.6 km/h 3.5 mph /  5.6 km/h 68 % 0 in /  0.0 mm
10:17 58.3 °F /  14.6 °C 47.8 °F /  8.8 °C 30.3 in /  1026.0 hPa NW 2.3 mph /  3.7 km/h 2.3 mph /  3.7 km/h 68 % 0 in /  0.0 mm
10:22 58.6 °F /  14.8 °C 47.7 °F /  8.7 °C 30.3 in /  1026.0 hPa ENE 2.3 mph /  3.7 km/h 2.3 mph /  3.7 km/h 67 % 0 in /  0.0 mm
10:27 59.2 °F /  15.1 °C 48.2 °F /  9.0 °C 30.3 in /  1026.0 hPa NW 2.3 mph /  3.7 km/h 2.3 mph /  3.7 km/h 67 % 0 in /  0.0 mm
10:32 59.7 °F /  15.4 °C 48.7 °F /  9.3 °C 30.3 in /  1026.0 hPa WSW 1.6 mph /  2.6 km/h   67 % 0 in /  0.0 mm
10:37 60.8 °F /  16.0 °C 49.5 °F /  9.7 °C 30.3 in /  1026.0 hPa Calm     66 % 0 in /  0.0 mm
10:42 60.8 °F /  16.0 °C 48.9 °F /  9.4 °C 30.3 in /  1026.0 hPa NW 2.3 mph /  3.7 km/h 2.3 mph /  3.7 km/h 65 % 0 in /  0.0 mm
10:43 60.8 °F /  16.0 °C 48.9 °F /  9.4 °C 30.3 in /  1026.0 hPa NW 2.3 mph /  3.7 km/h   65 % 0 in /  0.0 mm
10:48 61.3 °F /  16.3 °C 49.5 °F /  9.7 °C 30.3 in /  1026.0 hPa NNW 1.2 mph /  1.9 km/h 1.2 mph /  1.9 km/h 65 % 0 in /  0.0 mm
10:53 61.7 °F /  16.5 °C 49.5 °F /  9.7 °C 30.3 in /  1026.0 hPa NE 2.3 mph /  3.7 km/h 2.3 mph /  3.7 km/h 64 % 0 in /  0.0 mm
10:58 61.9 °F /  16.6 °C 49.6 °F /  9.8 °C 30.3 in /  1026.0 hPa WNW 2.3 mph /  3.7 km/h 2.3 mph /  3.7 km/h 64 % 0 in /  0.0 mm
11:03 62.4 °F /  16.9 °C 49.6 °F /  9.8 °C 30.3 in /  1026.0 hPa North 1.2 mph /  1.9 km/h 1.2 mph /  1.9 km/h 63 % 0 in /  0.0 mm
11:08 62.6 °F /  17.0 °C 48.9 °F /  9.4 °C 30.3 in /  1026.0 hPa ENE 3.5 mph /  5.6 km/h 3.5 mph /  5.6 km/h 61 % 0 in /  0.0 mm
11:18 63 °F /  17.2 °C 49.3 °F /  9.6 °C 30.3 in /  1026.0 hPa NE 3.8 mph /  6.1 km/h 3.8 mph /  6.1 km/h 61 % 0 in /  0.0 mm
11:23 63.5 °F /  17.5 °C 49.5 °F /  9.7 °C 30.3 in /  1026.0 hPa ENE 2.3 mph /  3.7 km/h 2.3 mph /  3.7 km/h 60 % 0 in /  0.0 mm
11:28 64.2 °F /  17.9 °C 50 °F /  10.0 °C 30.3 in /  1024.9 hPa NNE 2.3 mph /  3.7 km/h 2.3 mph /  3.7 km/h 60 % 0 in /  0.0 mm
11:33 64.6 °F /  18.1 °C 49.8 °F /  9.9 °C 30.3 in /  1024.9 hPa East 4.6 mph /  7.4 km/h 4.6 mph /  7.4 km/h 59 % 0 in /  0.0 mm
11:38 64.2 °F /  17.9 °C 49.1 °F /  9.5 °C 30.3 in /  1024.9 hPa NE 5.8 mph /  9.3 km/h 5.8 mph /  9.3 km/h 58 % 0 in /  0.0 mm
11:43 64.4 °F /  18.0 °C 49.3 °F /  9.6 °C 30.3 in /  1024.9 hPa NNE 5.8 mph /  9.3 km/h 5.8 mph /  9.3 km/h 58 % 0 in /  0.0 mm
11:48 64.2 °F /  17.9 °C 48.7 °F /  9.3 °C 30.3 in /  1024.9 hPa NNE 4.6 mph /  7.4 km/h 4.6 mph /  7.4 km/h 57 % 0 in /  0.0 mm
11:53 64.4 °F /  18.0 °C 48.7 °F /  9.3 °C 30.3 in /  1024.9 hPa NE 4.6 mph /  7.4 km/h 4.6 mph /  7.4 km/h 57 % 0 in /  0.0 mm
11:58 64.9 °F /  18.3 °C 49.3 °F /  9.6 °C 30.3 in /  1026.0 hPa NNE 6.9 mph /  11.1 km/h 6.9 mph /  11.1 km/h 57 % 0 in /  0.0 mm
12:03 65.3 °F /  18.5 °C 49.3 °F /  9.6 °C 30.3 in /  1026.0 hPa East 2.6 mph /  4.2 km/h 2.6 mph /  4.2 km/h 56 % 0 in /  0.0 mm
12:08 65.8 °F /  18.8 °C 49.3 °F /  9.6 °C 30.3 in /  1026.0 hPa NW 4.6 mph /  7.4 km/h 4.6 mph /  7.4 km/h 55 % 0 in /  0.0 mm
12:13 65.8 °F /  18.8 °C 49.3 °F /  9.6 °C 30.3 in /  1024.9 hPa NNE 5.8 mph /  9.3 km/h 5.8 mph /  9.3 km/h 55 % 0 in /  0.0 mm
12:18 66.2 °F /  19.0 °C 49.1 °F /  9.5 °C 30.3 in /  1024.9 hPa ENE 5.4 mph /  8.7 km/h 5.4 mph /  8.7 km/h 54 % 0 in /  0.0 mm
12:23 65.7 °F /  18.7 °C 48.6 °F /  9.2 °C 30.3 in /  1024.9 hPa ENE 4.6 mph /  7.4 km/h 4.6 mph /  7.4 km/h 54 % 0 in /  0.0 mm
12:28 66.2 °F /  19.0 °C 48.6 °F /  9.2 °C 30.3 in /  1024.9 hPa NNW 3.5 mph /  5.6 km/h 3.5 mph /  5.6 km/h 53 % 0 in /  0.0 mm
12:33 66.2 °F /  19.0 °C 48.6 °F /  9.2 °C 30.3 in /  1024.9 hPa NNE 5.8 mph /  9.3 km/h 5.8 mph /  9.3 km/h 53 % 0 in /  0.0 mm
12:38 67.1 °F /  19.5 °C 49.5 °F /  9.7 °C 30.3 in /  1024.9 hPa NE 3.8 mph /  6.1 km/h 3.8 mph /  6.1 km/h 53 % 0 in /  0.0 mm
12:43 67.5 °F /  19.7 °C 49.6 °F /  9.8 °C 30.3 in /  1024.9 hPa NNE 2.3 mph /  3.7 km/h 2.3 mph /  3.7 km/h 53 % 0 in /  0.0 mm
12:48 67.6 °F /  19.8 °C 49.5 °F /  9.7 °C 30.3 in /  1024.9 hPa ENE 4.6 mph /  7.4 km/h 4.6 mph /  7.4 km/h 52 % 0 in /  0.0 mm
12:53 67.3 °F /  19.6 °C 48.6 °F /  9.2 °C 30.3 in /  1024.9 hPa NE 3.5 mph /  5.6 km/h 3.5 mph /  5.6 km/h 51 % 0 in /  0.0 mm
12:58 67.5 °F /  19.7 °C 48.7 °F /  9.3 °C 30.2 in /  1023.9 hPa NNE 3.8 mph /  6.1 km/h 3.8 mph /  6.1 km/h 51 % 0 in /  0.0 mm
13:03 68.2 °F /  20.1 °C 49.5 °F /  9.7 °C 30.2 in /  1023.9 hPa NNE 4.6 mph /  7.4 km/h 4.6 mph /  7.4 km/h 51 % 0 in /  0.0 mm
13:08 68.4 °F /  20.2 °C 48.9 °F /  9.4 °C 30.2 in /  1023.9 hPa ESE 2.3 mph /  3.7 km/h 2.3 mph /  3.7 km/h 50 % 0 in /  0.0 mm
13:13 68.5 °F /  20.3 °C 49.3 °F /  9.6 °C 30.2 in /  1023.9 hPa ENE 2.3 mph /  3.7 km/h 2.3 mph /  3.7 km/h 50 % 0 in /  0.0 mm
13:18 69.4 °F /  20.8 °C 50 °F /  10.0 °C 30.2 in /  1023.9 hPa Calm     50 % 0 in /  0.0 mm
13:23 70.3 °F /  21.3 °C 50.7 °F /  10.4 °C 30.2 in /  1023.9 hPa SE 3.5 mph /  5.6 km/h 3.5 mph /  5.6 km/h 50 % 0 in /  0.0 mm
13:28 70.2 °F /  21.2 °C 50.2 °F /  10.1 °C 30.2 in /  1023.9 hPa SE 2.9 mph /  4.7 km/h 2.9 mph /  4.7 km/h 49 % 0 in /  0.0 mm
13:33 69.8 °F /  21.0 °C 49.3 °F /  9.6 °C 30.2 in /  1023.9 hPa ESE 3.5 mph /  5.6 km/h 3.5 mph /  5.6 km/h 48 % 0 in /  0.0 mm
13:38 70 °F /  21.1 °C 49.5 °F /  9.7 °C 30.2 in /  1023.9 hPa East 3.5 mph /  5.6 km/h 3.5 mph /  5.6 km/h 48 % 0 in /  0.0 mm
13:43 70 °F /  21.1 °C 49.5 °F /  9.7 °C 30.2 in /  1023.9 hPa East 2.4 mph /  3.9 km/h 2.6 mph /  4.2 km/h 48 % 0 in /  0.0 mm
13:48 70.5 °F /  21.4 °C 49.8 °F /  9.9 °C 30.2 in /  1023.9 hPa ENE 2.4 mph /  3.9 km/h   48 % 0 in /  0.0 mm
13:53 70.3 °F /  21.3 °C 49.6 °F /  9.8 °C 30.2 in /  1023.9 hPa NNE 2.3 mph /  3.7 km/h 2.3 mph /  3.7 km/h 48 % 0 in /  0.0 mm
13:58 70.7 °F /  21.5 °C 50 °F /  10.0 °C 30.2 in /  1023.9 hPa ENE 2.6 mph /  4.2 km/h 2.6 mph /  4.2 km/h 48 % 0 in /  0.0 mm
14:03 70.9 °F /  21.6 °C 50.2 °F /  10.1 °C 30.2 in /  1023.9 hPa ENE 2.3 mph /  3.7 km/h 2.3 mph /  3.7 km/h 48 % 0 in /  0.0 mm
14:08 71.1 °F /  21.7 °C 50.4 °F /  10.2 °C 30.2 in /  1023.9 hPa NNE 2.3 mph /  3.7 km/h 2.3 mph /  3.7 km/h 48 % 0 in /  0.0 mm
14:13 71.4 °F /  21.9 °C 50.7 °F /  10.4 °C 30.2 in /  1023.9 hPa ENE 2.6 mph /  4.2 km/h 2.6 mph /  4.2 km/h 48 % 0 in /  0.0 mm
14:18 71.8 °F /  22.1 °C 51.1 °F /  10.6 °C 30.2 in /  1023.9 hPa WNW 2.3 mph /  3.7 km/h 2.3 mph /  3.7 km/h 48 % 0 in /  0.0 mm
14:23 72.1 °F /  22.3 °C 50.7 °F /  10.4 °C 30.2 in /  1023.9 hPa NW 1.2 mph /  1.9 km/h 1.2 mph /  1.9 km/h 47 % 0 in /  0.0 mm
14:28 72.1 °F /  22.3 °C 51.4 °F /  10.8 °C 30.2 in /  1023.9 hPa East 3.5 mph /  5.6 km/h 3.5 mph /  5.6 km/h 48 % 0 in /  0.0 mm
14:33 72.1 °F /  22.3 °C 50.7 °F /  10.4 °C 30.2 in /  1023.9 hPa ESE 2.4 mph /  3.9 km/h 2.4 mph /  3.9 km/h 47 % 0 in /  0.0 mm
14:38 72.1 °F /  22.3 °C 50.7 °F /  10.4 °C 30.2 in /  1023.9 hPa North 1.4 mph /  2.3 km/h 1.4 mph /  2.3 km/h 47 % 0 in /  0.0 mm
14:43 72.5 °F /  22.5 °C 50.5 °F /  10.3 °C 30.2 in /  1022.9 hPa ENE 4.6 mph /  7.4 km/h 4.6 mph /  7.4 km/h 46 % 0 in /  0.0 mm
14:48 72.7 °F /  22.6 °C 50.7 °F /  10.4 °C 30.2 in /  1022.9 hPa East 3.5 mph /  5.6 km/h 3.5 mph /  5.6 km/h 46 % 0 in /  0.0 mm
14:53 72.9 °F /  22.7 °C 50.9 °F /  10.5 °C 30.2 in /  1022.9 hPa ENE 3.5 mph /  5.6 km/h 3.5 mph /  5.6 km/h 46 % 0 in /  0.0 mm
14:58 73 °F /  22.8 °C 50.4 °F /  10.2 °C 30.2 in /  1022.9 hPa ESE 3.5 mph /  5.6 km/h 3.5 mph /  5.6 km/h 45 % 0 in /  0.0 mm
15:03 73.6 °F /  23.1 °C 50.9 °F /  10.5 °C 30.2 in /  1022.9 hPa South 2.3 mph /  3.7 km/h 2.3 mph /  3.7 km/h 45 % 0 in /  0.0 mm
15:08 73.9 °F /  23.3 °C 50.5 °F /  10.3 °C 30.2 in /  1022.9 hPa East 2.3 mph /  3.7 km/h 2.3 mph /  3.7 km/h 44 % 0 in /  0.0 mm
15:13 73.6 °F /  23.1 °C 49.6 °F /  9.8 °C 30.2 in /  1022.9 hPa SE 3.5 mph /  5.6 km/h 3.5 mph /  5.6 km/h 43 % 0 in /  0.0 mm
15:18 73.9 °F /  23.3 °C 50.5 °F /  10.3 °C 30.2 in /  1022.9 hPa SSE 3.8 mph /  6.1 km/h 3.8 mph /  6.1 km/h 44 % 0 in /  0.0 mm
15:23 74.5 °F /  23.6 °C 50.5 °F /  10.3 °C 30.2 in /  1022.9 hPa SW 1.2 mph /  1.9 km/h   43 % 0 in /  0.0 mm
15:28 75.4 °F /  24.1 °C 52 °F /  11.1 °C 30.2 in /  1022.9 hPa SSE 2.3 mph /  3.7 km/h   44 % 0 in /  0.0 mm
15:33 76.1 °F /  24.5 °C 52.5 °F /  11.4 °C 30.2 in /  1022.9 hPa West 3.5 mph /  5.6 km/h 3.5 mph /  5.6 km/h 44 % 0 in /  0.0 mm
15:38 76.3 °F /  24.6 °C 52.9 °F /  11.6 °C 30.2 in /  1022.9 hPa SW 4.6 mph /  7.4 km/h 4.6 mph /  7.4 km/h 44 % 0 in /  0.0 mm
15:43 75.7 °F /  24.3 °C 51.1 °F /  10.6 °C 30.2 in /  1021.9 hPa SSW 2.3 mph /  3.7 km/h 2.3 mph /  3.7 km/h 42 % 0 in /  0.0 mm
15:48 76.1 °F /  24.5 °C 52 °F /  11.1 °C 30.2 in /  1021.9 hPa WSW 2.9 mph /  4.7 km/h 2.9 mph /  4.7 km/h 43 % 0 in /  0.0 mm
15:53 76.5 °F /  24.7 °C 52.3 °F /  11.3 °C 30.2 in /  1021.9 hPa West 3.5 mph /  5.6 km/h 3.5 mph /  5.6 km/h 43 % 0 in /  0.0 mm
15:58 76.5 °F /  24.7 °C 52.3 °F /  11.3 °C 30.2 in /  1022.9 hPa SW 6 mph /  9.7 km/h 6 mph /  9.7 km/h 43 % 0 in /  0.0 mm
16:03 75.9 °F /  24.4 °C 51.3 °F /  10.7 °C 30.2 in /  1022.9 hPa SW 3.5 mph /  5.6 km/h 3.5 mph /  5.6 km/h 42 % 0 in /  0.0 mm
16:08 76.3 °F /  24.6 °C 52.2 °F /  11.2 °C 30.2 in /  1022.9 hPa WSW 3.6 mph /  5.8 km/h 3.6 mph /  5.8 km/h 43 % 0 in /  0.0 mm
16:13 76.3 °F /  24.6 °C 52.2 °F /  11.2 °C 30.2 in /  1021.9 hPa SW 3.5 mph /  5.6 km/h 3.5 mph /  5.6 km/h 43 % 0 in /  0.0 mm
16:18 75.9 °F /  24.4 °C 51.8 °F /  11.0 °C 30.2 in /  1021.9 hPa SW 5.8 mph /  9.3 km/h 5.8 mph /  9.3 km/h 43 % 0 in /  0.0 mm
16:21 75.7 °F /  24.3 °C 52.3 °F /  11.3 °C 30.2 in /  1021.9 hPa SSW 2.9 mph /  4.7 km/h 2.9 mph /  4.7 km/h 44 % 0 in /  0.0 mm
16:26 75.4 °F /  24.1 °C 52 °F /  11.1 °C 30.2 in /  1021.9 hPa SW 3.5 mph /  5.6 km/h 3.5 mph /  5.6 km/h 44 % 0 in /  0.0 mm
16:31 74.8 °F /  23.8 °C 51.4 °F /  10.8 °C 30.2 in /  1021.9 hPa SSW 5.8 mph /  9.3 km/h 5.8 mph /  9.3 km/h 44 % 0 in /  0.0 mm
16:36 75 °F /  23.9 °C 51.6 °F /  10.9 °C 30.2 in /  1021.9 hPa WSW 4.6 mph /  7.4 km/h 4.6 mph /  7.4 km/h 44 % 0 in /  0.0 mm
16:41 75 °F /  23.9 °C 51.6 °F /  10.9 °C 30.2 in /  1021.9 hPa SSW 6.9 mph /  11.1 km/h 6.9 mph /  11.1 km/h 44 % 0 in /  0.0 mm
16:46 75.2 °F /  24.0 °C 51.8 °F /  11.0 °C 30.2 in /  1021.9 hPa SSW 4.6 mph /  7.4 km/h 4.6 mph /  7.4 km/h 44 % 0 in /  0.0 mm
16:51 74.8 °F /  23.8 °C 51.4 °F /  10.8 °C 30.2 in /  1021.9 hPa WSW 5.8 mph /  9.3 km/h 5.8 mph /  9.3 km/h 44 % 0 in /  0.0 mm
16:56 74.8 °F /  23.8 °C 51.4 °F /  10.8 °C 30.2 in /  1022.9 hPa WSW 6.7 mph /  10.8 km/h 6.7 mph /  10.8 km/h 44 % 0 in /  0.0 mm
17:01 74.5 °F /  23.6 °C 50.5 °F /  10.3 °C 30.2 in /  1022.9 hPa SW 6.9 mph /  11.1 km/h 6.9 mph /  11.1 km/h 43 % 0 in /  0.0 mm
17:06 74.5 °F /  23.6 °C 51.1 °F /  10.6 °C 30.2 in /  1022.9 hPa SW 5.8 mph /  9.3 km/h 5.8 mph /  9.3 km/h 44 % 0 in /  0.0 mm
17:11 74.3 °F /  23.5 °C 50.4 °F /  10.2 °C 30.2 in /  1021.9 hPa WSW 5.8 mph /  9.3 km/h 5.8 mph /  9.3 km/h 43 % 0 in /  0.0 mm
17:16 74.7 °F /  23.7 °C 51.3 °F /  10.7 °C 30.2 in /  1021.9 hPa SW 4.6 mph /  7.4 km/h 4.6 mph /  7.4 km/h 44 % 0 in /  0.0 mm
17:21 74.7 °F /  23.7 °C 51.3 °F /  10.7 °C 30.2 in /  1021.9 hPa SW 5.8 mph /  9.3 km/h 5.8 mph /  9.3 km/h 44 % 0 in /  0.0 mm
17:26 74.3 °F /  23.5 °C 50.4 °F /  10.2 °C 30.2 in /  1022.9 hPa SW 4.6 mph /  7.4 km/h 4.6 mph /  7.4 km/h 43 % 0 in /  0.0 mm
17:31 74.3 °F /  23.5 °C 50.4 °F /  10.2 °C 30.2 in /  1022.9 hPa SSW 4 mph /  6.4 km/h 4 mph /  6.4 km/h 43 % 0 in /  0.0 mm
17:36 73.9 °F /  23.3 °C 50 °F /  10.0 °C 30.2 in /  1022.9 hPa WSW 5.8 mph /  9.3 km/h 5.8 mph /  9.3 km/h 43 % 0 in /  0.0 mm
17:41 73.6 °F /  23.1 °C 49.6 °F /  9.8 °C 30.2 in /  1021.9 hPa SW 3.5 mph /  5.6 km/h 3.5 mph /  5.6 km/h 43 % 0 in /  0.0 mm
17:44 73.6 °F /  23.1 °C 49.6 °F /  9.8 °C 30.2 in /  1021.9 hPa South 4.3 mph /  6.9 km/h 4.3 mph /  6.9 km/h 43 % 0 in /  0.0 mm
17:49 73.4 °F /  23.0 °C 49.5 °F /  9.7 °C 30.2 in /  1021.9 hPa SSW 3.5 mph /  5.6 km/h 3.5 mph /  5.6 km/h 43 % 0 in /  0.0 mm
17:54 73.2 °F /  22.9 °C 50 °F /  10.0 °C 30.2 in /  1022.9 hPa SW 2.3 mph /  3.7 km/h 2.4 mph /  3.9 km/h 44 % 0 in /  0.0 mm
17:59 73.2 °F /  22.9 °C 50 °F /  10.0 °C 30.2 in /  1022.9 hPa WSW 4.9 mph /  7.9 km/h 4.9 mph /  7.9 km/h 44 % 0 in /  0.0 mm
18:04 72.7 °F /  22.6 °C 49.5 °F /  9.7 °C 30.2 in /  1022.9 hPa SW 4.7 mph /  7.6 km/h 4.7 mph /  7.6 km/h 44 % 0 in /  0.0 mm
18:09 72.5 °F /  22.5 °C 49.3 °F /  9.6 °C 30.2 in /  1021.9 hPa WSW 4 mph /  6.4 km/h 4 mph /  6.4 km/h 44 % 0 in /  0.0 mm
18:14 72.3 °F /  22.4 °C 49.3 °F /  9.6 °C 30.2 in /  1021.9 hPa SW 2.3 mph /  3.7 km/h 2.3 mph /  3.7 km/h 44 % 0 in /  0.0 mm
18:19 72.1 °F /  22.3 °C 49.6 °F /  9.8 °C 30.2 in /  1021.9 hPa SSW 2.6 mph /  4.2 km/h 2.6 mph /  4.2 km/h 45 % 0 in /  0.0 mm
18:24 71.6 °F /  22.0 °C 49.1 °F /  9.5 °C 30.2 in /  1022.9 hPa SW 3.5 mph /  5.6 km/h 3.5 mph /  5.6 km/h 45 % 0 in /  0.0 mm
18:29 71.1 °F /  21.7 °C 48.6 °F /  9.2 °C 30.2 in /  1022.9 hPa SW 3.8 mph /  6.1 km/h 3.8 mph /  6.1 km/h 45 % 0 in /  0.0 mm
18:34 70.7 °F /  21.5 °C 48.4 °F /  9.1 °C 30.2 in /  1022.9 hPa WSW 2.6 mph /  4.2 km/h 2.6 mph /  4.2 km/h 45 % 0 in /  0.0 mm
18:39 70 °F /  21.1 °C 47.7 °F /  8.7 °C 30.2 in /  1021.9 hPa SW 4.6 mph /  7.4 km/h 4.6 mph /  7.4 km/h 45 % 0 in /  0.0 mm
18:44 69.6 °F /  20.9 °C 47.3 °F /  8.5 °C 30.2 in /  1021.9 hPa SSW 3.5 mph /  5.6 km/h 3.5 mph /  5.6 km/h 45 % 0 in /  0.0 mm
18:49 69.3 °F /  20.7 °C 47.7 °F /  8.7 °C 30.2 in /  1021.9 hPa WSW 2.3 mph /  3.7 km/h 2.3 mph /  3.7 km/h 46 % 0 in /  0.0 mm
18:54 68.9 °F /  20.5 °C 47.3 °F /  8.5 °C 30.2 in /  1021.9 hPa WSW 2 mph /  3.2 km/h   46 % 0 in /  0.0 mm
18:59 68.5 °F /  20.3 °C 46.9 °F /  8.3 °C 30.2 in /  1021.9 hPa SW 2.3 mph /  3.7 km/h 2.3 mph /  3.7 km/h 46 % 0 in /  0.0 mm
19:04 68.2 °F /  20.1 °C 46.6 °F /  8.1 °C 30.2 in /  1021.9 hPa WSW 1.2 mph /  1.9 km/h 1.2 mph /  1.9 km/h 46 % 0 in /  0.0 mm
19:09 67.8 °F /  19.9 °C 46.2 °F /  7.9 °C 30.2 in /  1022.9 hPa WSW 2.4 mph /  3.9 km/h   46 % 0 in /  0.0 mm
19:14 67.6 °F /  19.8 °C 46 °F /  7.8 °C 30.2 in /  1022.9 hPa SW 2.4 mph /  3.9 km/h 2.4 mph /  3.9 km/h 46 % 0 in /  0.0 mm
19:15 57.7 °F /  14.3 °C 45.7 °F /  7.6 °C 30.2 in /  1023.9 hPa Calm     64 % 0 in /  0.0 mm
19:19 67.5 °F /  19.7 °C 45.9 °F /  7.7 °C 30.2 in /  1022.9 hPa Calm     46 % 0 in /  0.0 mm
19:24 67.1 °F /  19.5 °C 46.2 °F /  7.9 °C 30.2 in /  1022.9 hPa Calm     47 % 0 in /  0.0 mm
19:25 57.7 °F /  14.3 °C 45.7 °F /  7.6 °C 30.2 in /  1023.9 hPa Calm   1 mph /  1.6 km/h 64 % 0 in /  0.0 mm
19:29 66.7 °F /  19.3 °C 45.9 °F /  7.7 °C 30.2 in /  1022.9 hPa Calm     47 % 0 in /  0.0 mm
19:34 66.4 °F /  19.1 °C 45.5 °F /  7.5 °C 30.2 in /  1022.9 hPa Calm     47 % 0 in /  0.0 mm
19:35 58.1 °F /  14.5 °C 46 °F /  7.8 °C 30.2 in /  1023.9 hPa WNW 1 mph /  1.6 km/h 2 mph /  3.2 km/h 64 % 0 in /  0.0 mm
19:39 66.2 °F /  19.0 °C 45.3 °F /  7.4 °C 30.2 in /  1022.9 hPa Calm     47 % 0 in /  0.0 mm
19:44 66 °F /  18.9 °C 45.9 °F /  7.7 °C 30.2 in /  1022.9 hPa Calm     48 % 0 in /  0.0 mm
19:45 57.7 °F /  14.3 °C 45.7 °F /  7.6 °C 30.3 in /  1024.9 hPa WNW 1 mph /  1.6 km/h 2 mph /  3.2 km/h 64 % 0 in /  0.0 mm
19:49 65.7 °F /  18.7 °C 46 °F /  7.8 °C 30.2 in /  1022.9 hPa Calm     49 % 0 in /  0.0 mm
19:54 65.5 °F /  18.6 °C 45.9 °F /  7.7 °C 30.2 in /  1022.9 hPa Calm     49 % 0 in /  0.0 mm
19:55 57.4 °F /  14.1 °C 45.3 °F /  7.4 °C 30.3 in /  1024.9 hPa West 1 mph /  1.6 km/h 2 mph /  3.2 km/h 64 % 0 in /  0.0 mm
19:59 65.3 °F /  18.5 °C 45.7 °F /  7.6 °C 30.2 in /  1022.9 hPa Calm     49 % 0 in /  0.0 mm
20:04 65.1 °F /  18.4 °C 45.5 °F /  7.5 °C 30.2 in /  1022.9 hPa Calm     49 % 0 in /  0.0 mm
20:05 57.2 °F /  14.0 °C 45.1 °F /  7.3 °C 30.2 in /  1023.9 hPa WSW 1 mph /  1.6 km/h 2 mph /  3.2 km/h 64 % 0 in /  0.0 mm
20:09 64.9 °F /  18.3 °C 45.3 °F /  7.4 °C 30.2 in /  1023.9 hPa SW 1.2 mph /  1.9 km/h   49 % 0 in /  0.0 mm
20:14 64.6 °F /  18.1 °C 45.5 °F /  7.5 °C 30.2 in /  1023.9 hPa WNW 1.2 mph /  1.9 km/h 1.2 mph /  1.9 km/h 50 % 0 in /  0.0 mm
20:15 57.2 °F /  14.0 °C 45.5 °F /  7.5 °C 30.3 in /  1024.9 hPa Calm   2 mph /  3.2 km/h 65 % 0 in /  0.0 mm
20:19 64.2 °F /  17.9 °C 45.1 °F /  7.3 °C 30.2 in /  1023.9 hPa Calm     50 % 0 in /  0.0 mm
20:24 64.4 °F /  18.0 °C 45.3 °F /  7.4 °C 30.2 in /  1022.9 hPa WNW 1.4 mph /  2.3 km/h   50 % 0 in /  0.0 mm
20:25 56.7 °F /  13.7 °C 45 °F /  7.2 °C 30.3 in /  1024.9 hPa SW 1 mph /  1.6 km/h 1 mph /  1.6 km/h 65 % 0 in /  0.0 mm
20:29 64.2 °F /  17.9 °C 45.1 °F /  7.3 °C 30.2 in /  1022.9 hPa Calm     50 % 0 in /  0.0 mm
20:34 64 °F /  17.8 °C 45 °F /  7.2 °C 30.2 in /  1022.9 hPa Calm     50 % 0 in /  0.0 mm
20:35 56.1 °F /  13.4 °C 45 °F /  7.2 °C 30.2 in /  1023.9 hPa SW 1 mph /  1.6 km/h 2 mph /  3.2 km/h 66 % 0 in /  0.0 mm
20:39 64 °F /  17.8 °C 45 °F /  7.2 °C 30.2 in /  1023.9 hPa Calm     50 % 0 in /  0.0 mm
20:44 63.9 °F /  17.7 °C 45 °F /  7.2 °C 30.2 in /  1023.9 hPa WNW 1.4 mph /  2.3 km/h   50 % 0 in /  0.0 mm
20:45 55.8 °F /  13.2 °C 45 °F /  7.2 °C 30.3 in /  1024.9 hPa Calm   1 mph /  1.6 km/h 67 % 0 in /  0.0 mm
20:49 63.5 °F /  17.5 °C 45 °F /  7.2 °C 30.2 in /  1023.9 hPa Calm     51 % 0 in /  0.0 mm
20:54 63.5 °F /  17.5 °C 45 °F /  7.2 °C 30.2 in /  1023.9 hPa WNW 1.2 mph /  1.9 km/h   51 % 0 in /  0.0 mm
20:55 55.4 °F /  13.0 °C 44.6 °F /  7.0 °C 30.3 in /  1024.9 hPa Calm     67 % 0 in /  0.0 mm
20:59 63.3 °F /  17.4 °C 45 °F /  7.2 °C 30.2 in /  1023.9 hPa WNW 2 mph /  3.2 km/h 2 mph /  3.2 km/h 51 % 0 in /  0.0 mm
21:04 63 °F /  17.2 °C 44.4 °F /  6.9 °C 30.2 in /  1023.9 hPa Calm     51 % 0 in /  0.0 mm
21:05 55.2 °F /  12.9 °C 44.8 °F /  7.1 °C 30.2 in /  1023.9 hPa SW 1 mph /  1.6 km/h 2 mph /  3.2 km/h 68 % 0 in /  0.0 mm
21:09 62.8 °F /  17.1 °C 45 °F /  7.2 °C 30.2 in /  1023.9 hPa Calm     52 % 0 in /  0.0 mm
21:14 62.6 °F /  17.0 °C 44.8 °F /  7.1 °C 30.2 in /  1023.9 hPa West 2.3 mph /  3.7 km/h 2.3 mph /  3.7 km/h 52 % 0 in /  0.0 mm
21:15 55.4 °F /  13.0 °C 45 °F /  7.2 °C 30.2 in /  1023.9 hPa SW 1 mph /  1.6 km/h 2 mph /  3.2 km/h 68 % 0 in /  0.0 mm
21:19 62.4 °F /  16.9 °C 45.1 °F /  7.3 °C 30.2 in /  1023.9 hPa Calm     53 % 0 in /  0.0 mm
21:24 62.1 °F /  16.7 °C 44.8 °F /  7.1 °C 30.2 in /  1023.9 hPa Calm     53 % 0 in /  0.0 mm
21:25 55.4 °F /  13.0 °C 45.3 °F /  7.4 °C 30.2 in /  1023.9 hPa Calm   2 mph /  3.2 km/h 69 % 0 in /  0.0 mm
21:29 61.9 °F /  16.6 °C 45 °F /  7.2 °C 30.2 in /  1023.9 hPa Calm     54 % 0 in /  0.0 mm
21:34 61.7 °F /  16.5 °C 45 °F /  7.2 °C 30.2 in /  1023.9 hPa Calm     54 % 0 in /  0.0 mm
21:35 55.4 °F /  13.0 °C 45 °F /  7.2 °C 30.2 in /  1023.9 hPa Calm   2 mph /  3.2 km/h 68 % 0 in /  0.0 mm
21:39 61.5 °F /  16.4 °C 44.8 °F /  7.1 °C 30.2 in /  1023.9 hPa Calm     54 % 0 in /  0.0 mm
21:44 61.5 °F /  16.4 °C 44.8 °F /  7.1 °C 30.2 in /  1023.9 hPa Calm     54 % 0 in /  0.0 mm
21:45 55.8 °F /  13.2 °C 45.3 °F /  7.4 °C 30.2 in /  1023.9 hPa Calm   1 mph /  1.6 km/h 68 % 0 in /  0.0 mm
21:49 61.3 °F /  16.3 °C 44.4 °F /  6.9 °C 30.2 in /  1023.9 hPa Calm     54 % 0 in /  0.0 mm
21:54 61.2 °F /  16.2 °C 45 °F /  7.2 °C 30.2 in /  1023.9 hPa Calm     55 % 0 in /  0.0 mm
21:55 55.6 °F /  13.1 °C 45.7 °F /  7.6 °C 30.2 in /  1023.9 hPa Calm     69 % 0 in /  0.0 mm
21:59 61.2 °F /  16.2 °C 45 °F /  7.2 °C 30.2 in /  1023.9 hPa Calm     55 % 0 in /  0.0 mm
22:04 61 °F /  16.1 °C 45.1 °F /  7.3 °C 30.2 in /  1023.9 hPa Calm     56 % 0 in /  0.0 mm
22:05 54.9 °F /  12.7 °C 44.4 °F /  6.9 °C 30.2 in /  1023.9 hPa WSW 2 mph /  3.2 km/h 2 mph /  3.2 km/h 68 % 0 in /  0.0 mm
22:09 60.8 °F /  16.0 °C 45 °F /  7.2 °C 30.2 in /  1023.9 hPa Calm     56 % 0 in /  0.0 mm
22:14 60.6 °F /  15.9 °C 45.3 °F /  7.4 °C 30.2 in /  1023.9 hPa Calm     57 % 0 in /  0.0 mm
22:15 54.5 °F /  12.5 °C 44.4 °F /  6.9 °C 30.2 in /  1023.9 hPa SW 1 mph /  1.6 km/h 2 mph /  3.2 km/h 69 % 0 in /  0.0 mm
22:19 60.4 °F /  15.8 °C 45.1 °F /  7.3 °C 30.2 in /  1023.9 hPa Calm     57 % 0 in /  0.0 mm
22:24 60.3 °F /  15.7 °C 45.3 °F /  7.4 °C 30.2 in /  1023.9 hPa Calm     58 % 0 in /  0.0 mm
22:25 54.5 °F /  12.5 °C 44.4 °F /  6.9 °C 30.2 in /  1023.9 hPa SW 2 mph /  3.2 km/h 2 mph /  3.2 km/h 69 % 0 in /  0.0 mm
22:29 60.3 °F /  15.7 °C 45.3 °F /  7.4 °C 30.2 in /  1023.9 hPa Calm     58 % 0 in /  0.0 mm
22:34 60.3 °F /  15.7 °C 45.3 °F /  7.4 °C 30.2 in /  1023.9 hPa West 1.2 mph /  1.9 km/h 1.2 mph /  1.9 km/h 58 % 0 in /  0.0 mm
22:35 54.1 °F /  12.3 °C 44.2 °F /  6.8 °C 30.2 in /  1023.9 hPa SW 1 mph /  1.6 km/h 3 mph /  4.8 km/h 69 % 0 in /  0.0 mm
22:39 60.4 °F /  15.8 °C 45.7 °F /  7.6 °C 30.2 in /  1023.9 hPa West 2.3 mph /  3.7 km/h 2.3 mph /  3.7 km/h 58 % 0 in /  0.0 mm
22:44 60.4 °F /  15.8 °C 45.7 °F /  7.6 °C 30.2 in /  1023.9 hPa Calm     58 % 0 in /  0.0 mm
22:45 54 °F /  12.2 °C 44.4 °F /  6.9 °C 30.2 in /  1023.9 hPa Calm     70 % 0 in /  0.0 mm
22:49 60.6 °F /  15.9 °C 45.9 °F /  7.7 °C 30.2 in /  1023.9 hPa West 1.2 mph /  1.9 km/h   58 % 0 in /  0.0 mm
22:54 60.6 °F /  15.9 °C 46.2 °F /  7.9 °C 30.2 in /  1023.9 hPa SSW 1.2 mph /  1.9 km/h   59 % 0 in /  0.0 mm
22:55 53.8 °F /  12.1 °C 44.6 °F /  7.0 °C 30.2 in /  1023.9 hPa SW 1 mph /  1.6 km/h 2 mph /  3.2 km/h 71 % 0 in /  0.0 mm
22:59 60.1 °F /  15.6 °C 45.7 °F /  7.6 °C 30.2 in /  1023.9 hPa WSW 2.3 mph /  3.7 km/h 2.3 mph /  3.7 km/h 59 % 0 in /  0.0 mm
23:04 59.9 °F /  15.5 °C 45.5 °F /  7.5 °C 30.2 in /  1023.9 hPa Calm     59 % 0 in /  0.0 mm
23:05 53.6 °F /  12.0 °C 44.4 °F /  6.9 °C 30.2 in /  1023.9 hPa SW 1 mph /  1.6 km/h 2 mph /  3.2 km/h 71 % 0 in /  0.0 mm
23:09 59.7 °F /  15.4 °C 45.9 °F /  7.7 °C 30.2 in /  1023.9 hPa Calm     60 % 0 in /  0.0 mm
23:14 59.5 °F /  15.3 °C 45.7 °F /  7.6 °C 30.2 in /  1023.9 hPa WSW 1.2 mph /  1.9 km/h 1.2 mph /  1.9 km/h 60 % 0 in /  0.0 mm
23:15 53.6 °F /  12.0 °C 44.4 °F /  6.9 °C 30.2 in /  1023.9 hPa Calm   2 mph /  3.2 km/h 71 % 0 in /  0.0 mm
23:19 59.2 °F /  15.1 °C 45.7 °F /  7.6 °C 30.2 in /  1023.9 hPa Calm     61 % 0 in /  0.0 mm
23:24 59.2 °F /  15.1 °C 45.7 °F /  7.6 °C 30.2 in /  1023.9 hPa SW 2.3 mph /  3.7 km/h 2.3 mph /  3.7 km/h 61 % 0 in /  0.0 mm
23:25 53.6 °F /  12.0 °C 44.8 °F /  7.1 °C 30.2 in /  1023.9 hPa Calm     72 % 0 in /  0.0 mm
23:29 59.2 °F /  15.1 °C 45.7 °F /  7.6 °C 30.2 in /  1023.9 hPa Calm     61 % 0 in /  0.0 mm
23:34 59 °F /  15.0 °C 45.7 °F /  7.6 °C 30.2 in /  1023.9 hPa Calm     61 % 0 in /  0.0 mm
23:35 53.4 °F /  11.9 °C 45 °F /  7.2 °C 30.2 in /  1023.9 hPa Calm     73 % 0 in /  0.0 mm
23:39 59 °F /  15.0 °C 46 °F /  7.8 °C 30.2 in /  1023.9 hPa NNE 1.6 mph /  2.6 km/h 1.6 mph /  2.6 km/h 62 % 0 in /  0.0 mm
23:44 58.8 °F /  14.9 °C 45.9 °F /  7.7 °C 30.2 in /  1023.9 hPa NNE 2.3 mph /  3.7 km/h   62 % 0 in /  0.0 mm
23:45 53.4 °F /  11.9 °C 45 °F /  7.2 °C 30.2 in /  1023.9 hPa Calm     73 % 0 in /  0.0 mm
23:49 58.6 °F /  14.8 °C 45.7 °F /  7.6 °C 30.2 in /  1023.9 hPa WNW 2 mph /  3.2 km/h   62 % 0 in /  0.0 mm
23:54 58.5 °F /  14.7 °C 45.5 °F /  7.5 °C 30.2 in /  1023.9 hPa WNW 1.2 mph /  1.9 km/h 1.2 mph /  1.9 km/h 62 % 0 in /  0.0 mm
23:55 53.4 °F /  11.9 °C 44.6 °F /  7.0 °C 30.2 in /  1023.9 hPa SW 1 mph /  1.6 km/h 2 mph /  3.2 km/h 72 % 0 in /  0.0 mm
23:59 58.3 °F /  14.6 °C 45.7 °F /  7.6 °C 30.2 in /  1023.9 hPa WNW 1.6 mph /  2.6 km/h 1.6 mph /  2.6 km/h 63 % 0 in /  0.0 mm
Meteo Sesrovires
Elogis d' Weather Underground - 3.75 mb

Guio original per  Jim McMurry - jmcmurry@mwt.net Adaptat per a la plantilla per  Wim van der Kuil - Leuven-Template.eu

Trobareu la nostra informacio del temps tambe a:

Weather Underground

AWEKAS